Time;durP1;ratioP1;P1;durP2;ratioP2;P2;SDS_P1;SDS_P2;PMS_P1;PMS_P2;Temp;Humidity;BMP_temperature;BMP_pressure;BME280_temperature;BME280_humidity;BME280_pressure;Samples;Min_cycle;Max_cycle;Signal;HPM_P1;HPM_P2
2024/03/17 00:02:01;;;;;;;12.80;5.67;;;;;;;;;;5032501;28;20068;-70
2024/03/17 00:04:27;;;;;;;12.63;4.78;;;;;;;;;;5034935;28;20291;-70
2024/03/17 00:06:52;;;;;;;17.00;4.78;;;;;;;;;;5033264;28;20358;-70
2024/03/17 00:09:17;;;;;;;10.43;4.53;;;;;;;;;;5035754;28;20025;-70
2024/03/17 00:11:43;;;;;;;13.88;3.90;;;;;;;;;;5035596;28;20388;-70
2024/03/17 00:14:08;;;;;;;10.15;3.78;;;;;;;;;;5033815;28;20014;-70
2024/03/17 00:16:34;;;;;;;12.80;3.93;;;;;;;;;;5035220;28;20037;-70
2024/03/17 00:18:59;;;;;;;23.27;3.95;;;;;;;;;;5031607;28;20276;-70
2024/03/17 00:21:26;;;;;;;15.02;3.55;;;;;;;;;;5031003;28;20377;-70
2024/03/17 00:23:51;;;;;;;9.25;3.90;;;;;;;;;;5032654;28;20112;-70
2024/03/17 00:26:16;;;;;;;11.68;3.60;;;;;;;;;;5031836;28;20112;-70
2024/03/17 00:28:42;;;;;;;11.07;3.70;;;;;;;;;;5034985;28;20043;-70
2024/03/17 00:31:09;;;;;;;12.90;3.95;;;;;;;;;;5031926;28;20329;-70
2024/03/17 00:33:35;;;;;;;12.45;3.30;;;;;;;;;;5031376;28;20385;-70
2024/03/17 00:36:00;;;;;;;8.88;3.92;;;;;;;;;;5031189;28;20044;-70
2024/03/17 00:38:25;;;;;;;17.00;3.57;;;;;;;;;;5034788;28;20381;-70
2024/03/17 00:40:50;;;;;;;10.03;3.80;;;;;;;;;;5035031;28;20309;-70
2024/03/17 00:43:15;;;;;;;8.53;3.67;;;;;;;;;;5034523;28;20604;-70
2024/03/17 00:45:41;;;;;;;7.33;4.00;;;;;;;;;;5033601;28;20677;-70
2024/03/17 00:48:06;;;;;;;12.10;4.68;;;;;;;;;;5036039;28;20283;-70
2024/03/17 00:50:32;;;;;;;14.77;4.28;;;;;;;;;;5031638;28;20033;-70
2024/03/17 00:52:57;;;;;;;11.20;3.75;;;;;;;;;;5037552;28;20017;-70
2024/03/17 00:55:22;;;;;;;8.37;3.33;;;;;;;;;;5034801;28;20400;-70
2024/03/17 00:57:47;;;;;;;9.50;4.40;;;;;;;;;;5037747;28;20258;-70
2024/03/17 01:00:14;;;;;;;18.97;3.90;;;;;;;;;;5034693;28;20600;-70
2024/03/17 01:02:39;;;;;;;12.63;4.93;;;;;;;;;;5035401;28;20260;-70
2024/03/17 01:05:05;;;;;;;10.73;4.07;;;;;;;;;;5033569;28;20025;-70
2024/03/17 01:07:30;;;;;;;18.33;4.68;;;;;;;;;;5031604;28;20033;-70
2024/03/17 01:09:56;;;;;;;14.48;5.00;;;;;;;;;;5030340;28;20116;-70
2024/03/17 01:12:21;;;;;;;13.75;4.05;;;;;;;;;;5030868;28;20104;-70
2024/03/17 01:14:46;;;;;;;13.15;4.68;;;;;;;;;;5034857;28;20160;-70
2024/03/17 01:17:12;;;;;;;19.57;5.30;;;;;;;;;;5034223;28;20151;-70
2024/03/17 01:19:37;;;;;;;16.87;4.73;;;;;;;;;;5031904;28;20264;-70
2024/03/17 01:22:02;;;;;;;17.70;5.97;;;;;;;;;;5035934;28;20353;-70
2024/03/17 01:24:31;;;;;;;16.23;4.95;;;;;;;;;;5027566;28;20269;-70
2024/03/17 01:26:57;;;;;;;9.75;4.00;;;;;;;;;;5031178;28;20009;-70
2024/03/17 01:29:22;;;;;;;11.07;5.35;;;;;;;;;;5034745;28;20025;-70
2024/03/17 01:31:47;;;;;;;15.93;4.57;;;;;;;;;;5030168;28;20591;-70
2024/03/17 01:34:12;;;;;;;10.83;4.40;;;;;;;;;;5036974;28;20271;-70
2024/03/17 01:36:38;;;;;;;14.53;4.10;;;;;;;;;;5033707;28;20269;-70
2024/03/17 01:39:03;;;;;;;15.32;5.90;;;;;;;;;;5035556;28;20335;-70
2024/03/17 01:41:28;;;;;;;11.63;4.85;;;;;;;;;;5032049;28;20021;-70
2024/03/17 01:43:53;;;;;;;13.63;5.33;;;;;;;;;;5030525;28;20013;-70
2024/03/17 01:46:18;;;;;;;15.95;5.05;;;;;;;;;;5033393;28;20314;-70
2024/03/17 01:48:44;;;;;;;12.77;5.07;;;;;;;;;;5028532;28;20040;-70
2024/03/17 01:51:10;;;;;;;16.55;4.85;;;;;;;;;;5033049;28;20282;-70
2024/03/17 01:53:36;;;;;;;13.60;6.07;;;;;;;;;;5033309;28;20519;-70
2024/03/17 01:56:02;;;;;;;15.15;5.28;;;;;;;;;;5034291;28;20100;-70
2024/03/17 01:58:27;;;;;;;14.32;4.88;;;;;;;;;;5031797;28;20032;-70
2024/03/17 02:00:52;;;;;;;16.33;5.13;;;;;;;;;;5032799;28;20025;-70
2024/03/17 02:03:18;;;;;;;15.15;5.15;;;;;;;;;;5033531;28;20021;-70
2024/03/17 02:05:43;;;;;;;10.17;4.83;;;;;;;;;;5029375;28;20397;-70
2024/03/17 02:08:10;;;;;;;11.35;5.15;;;;;;;;;;5029765;28;20272;-70
2024/03/17 02:10:35;;;;;;;12.02;5.60;;;;;;;;;;5030772;28;20064;-70
2024/03/17 02:13:04;;;;;;;18.23;5.68;;;;;;;;;;5027155;28;20488;-70
2024/03/17 02:15:29;;;;;;;18.85;5.25;;;;;;;;;;5029544;28;20036;-70
2024/03/17 02:17:55;;;;;;;15.95;6.55;;;;;;;;;;5032361;28;20018;-70
2024/03/17 02:20:24;;;;;;;22.27;6.28;;;;;;;;;;5031334;28;20013;-70
2024/03/17 02:22:49;;;;;;;16.35;6.10;;;;;;;;;;5033537;28;20140;-70
2024/03/17 02:25:15;;;;;;;18.13;6.40;;;;;;;;;;5032824;28;20108;-70
2024/03/17 02:27:40;;;;;;;16.27;6.07;;;;;;;;;;5030970;28;20256;-70
2024/03/17 02:30:09;;;;;;;21.50;5.93;;;;;;;;;;5028405;28;20334;-70
2024/03/17 02:32:34;;;;;;;15.50;5.78;;;;;;;;;;5032843;28;20271;-70
2024/03/17 02:34:59;;;;;;;17.65;6.55;;;;;;;;;;5032136;28;20369;-70
2024/03/17 02:37:25;;;;;;;11.48;5.25;;;;;;;;;;5035310;28;20021;-70
2024/03/17 02:39:50;;;;;;;8.82;4.75;;;;;;;;;;5035015;28;20033;-70
2024/03/17 02:42:15;;;;;;;12.40;5.35;;;;;;;;;;5029895;28;20357;-70
2024/03/17 02:44:40;;;;;;;17.93;5.33;;;;;;;;;;5031231;28;20037;-70
2024/03/17 02:47:09;;;;;;;13.57;4.95;;;;;;;;;;5031917;28;20321;-70
2024/03/17 02:49:39;;;;;;;14.63;5.55;;;;;;;;;;5029937;28;20065;-70
2024/03/17 02:52:05;;;;;;;12.85;5.03;;;;;;;;;;5031257;28;20161;-70
2024/03/17 02:54:30;;;;;;;12.25;5.85;;;;;;;;;;5031051;28;20117;-70
2024/03/17 02:56:55;;;;;;;19.25;5.72;;;;;;;;;;5031198;28;20457;-70
2024/03/17 02:59:21;;;;;;;13.63;6.05;;;;;;;;;;5028833;28;20448;-70
2024/03/17 03:01:46;;;;;;;14.73;5.85;;;;;;;;;;5029247;28;20516;-70
2024/03/17 03:04:11;;;;;;;13.50;6.17;;;;;;;;;;5030933;28;20025;-70
2024/03/17 03:06:37;;;;;;;16.88;6.15;;;;;;;;;;5030930;28;20312;-70
2024/03/17 03:09:04;;;;;;;13.27;6.15;;;;;;;;;;5031272;28;20018;-70
2024/03/17 03:11:29;;;;;;;15.75;6.13;;;;;;;;;;5028494;28;20105;-70
2024/03/17 03:13:54;;;;;;;16.00;5.93;;;;;;;;;;5031601;28;20531;-70
2024/03/17 03:16:20;;;;;;;13.27;6.60;;;;;;;;;;5029406;28;20279;-70
2024/03/17 03:18:45;;;;;;;12.85;6.32;;;;;;;;;;5034342;28;20837;-70
2024/03/17 03:21:12;;;;;;;18.65;6.63;;;;;;;;;;5032121;28;20388;-70
2024/03/17 03:23:37;;;;;;;17.80;6.68;;;;;;;;;;5026917;28;20030;-70
2024/03/17 03:26:03;;;;;;;14.43;6.60;;;;;;;;;;5029421;28;20407;-70
2024/03/17 03:28:30;;;;;;;19.80;6.85;;;;;;;;;;5031728;28;20032;-70
2024/03/17 03:30:55;;;;;;;13.27;6.88;;;;;;;;;;5027113;28;20544;-70
2024/03/17 03:33:21;;;;;;;14.95;6.88;;;;;;;;;;5031897;28;20021;-70
2024/03/17 03:35:46;;;;;;;17.55;7.40;;;;;;;;;;5030355;28;20482;-70
2024/03/17 03:38:13;;;;;;;18.50;6.97;;;;;;;;;;5029713;28;20013;-70
2024/03/17 03:40:38;;;;;;;21.42;7.07;;;;;;;;;;5031396;28;20404;-70
2024/03/17 03:43:03;;;;;;;15.07;6.82;;;;;;;;;;5028854;28;20029;-70
2024/03/17 03:45:29;;;;;;;14.43;6.60;;;;;;;;;;5031446;28;20480;-70
2024/03/17 03:47:54;;;;;;;15.75;6.68;;;;;;;;;;5029489;28;20272;-70
2024/03/17 03:50:20;;;;;;;16.70;6.17;;;;;;;;;;5033778;28;20028;-70
2024/03/17 03:52:46;;;;;;;11.02;5.75;;;;;;;;;;5033832;28;20616;-70
2024/03/17 03:55:14;;;;;;;24.70;6.25;;;;;;;;;;5031397;28;20013;-70
2024/03/17 03:57:40;;;;;;;19.00;7.28;;;;;;;;;;5029045;28;20033;-70
2024/03/17 04:00:12;;;;;;;21.52;6.80;;;;;;;;;;5032623;28;20052;-70
2024/03/17 04:02:37;;;;;;;11.18;6.00;;;;;;;;;;5030067;28;20025;-70
2024/03/17 04:05:03;;;;;;;20.55;6.93;;;;;;;;;;5030285;28;20025;-70
2024/03/17 04:07:28;;;;;;;15.70;6.22;;;;;;;;;;5028812;28;20113;-70
2024/03/17 04:09:53;;;;;;;21.47;7.20;;;;;;;;;;5030795;28;20480;-70
2024/03/17 04:12:19;;;;;;;17.23;7.20;;;;;;;;;;5031361;28;20386;-70
2024/03/17 04:14:44;;;;;;;16.52;6.72;;;;;;;;;;5030711;28;20123;-70
2024/03/17 04:17:11;;;;;;;19.65;6.72;;;;;;;;;;5022242;28;20018;-70
2024/03/17 04:19:36;;;;;;;27.23;7.28;;;;;;;;;;5028451;28;20022;-70
2024/03/17 04:22:01;;;;;;;14.77;7.00;;;;;;;;;;5027109;28;20503;-70
2024/03/17 04:24:27;;;;;;;14.27;6.63;;;;;;;;;;5031497;28;20276;-70
2024/03/17 04:26:53;;;;;;;18.35;7.18;;;;;;;;;;5034124;28;20678;-70
2024/03/17 04:29:18;;;;;;;19.38;7.25;;;;;;;;;;5030799;28;20026;-70
2024/03/17 04:31:48;;;;;;;18.20;7.75;;;;;;;;;;5033254;28;20469;-70
2024/03/17 04:34:13;;;;;;;24.05;8.30;;;;;;;;;;5032308;28;20097;-70
2024/03/17 04:36:38;;;;;;;25.10;6.73;;;;;;;;;;5030006;28;20034;-70
2024/03/17 04:39:08;;;;;;;14.45;6.55;;;;;;;;;;5028536;28;20286;-71
2024/03/17 04:41:33;;;;;;;14.77;7.78;;;;;;;;;;5034719;28;20291;-70
2024/03/17 04:43:58;;;;;;;20.05;7.53;;;;;;;;;;5031930;28;20704;-70
2024/03/17 04:46:23;;;;;;;22.77;6.90;;;;;;;;;;5031433;28;20040;-70
2024/03/17 04:48:49;;;;;;;16.95;7.70;;;;;;;;;;5033437;28;20256;-70
2024/03/17 04:51:17;;;;;;;21.60;7.67;;;;;;;;;;5032168;28;20292;-70
2024/03/17 04:53:42;;;;;;;15.93;7.68;;;;;;;;;;5031626;28;20327;-70
2024/03/17 04:56:07;;;;;;;20.13;6.83;;;;;;;;;;5030244;28;20208;-70
2024/03/17 04:58:32;;;;;;;14.60;6.47;;;;;;;;;;5031963;28;20335;-70
2024/03/17 05:01:02;;;;;;;16.13;7.10;;;;;;;;;;5027850;28;20025;-70
2024/03/17 05:03:27;;;;;;;20.23;7.28;;;;;;;;;;5031767;28;20041;-70
2024/03/17 05:06:03;;;;;;;17.47;7.43;;;;;;;;;;5037050;28;20112;-70
2024/03/17 05:08:32;;;;;;;13.30;6.75;;;;;;;;;;5035771;28;20259;-70
2024/03/17 05:11:06;;;;;;;24.38;6.97;;;;;;;;;;5031843;28;20495;-70
2024/03/17 05:13:32;;;;;;;20.45;7.45;;;;;;;;;;5030406;28;20017;-70
2024/03/17 05:15:57;;;;;;;13.02;6.65;;;;;;;;;;5029461;28;20400;-70
2024/03/17 05:18:25;;;;;;;15.80;7.47;;;;;;;;;;5033539;28;20030;-70
2024/03/17 05:20:58;;;;;;;22.80;6.93;;;;;;;;;;5032891;28;20033;-70
2024/03/17 05:23:24;;;;;;;22.52;8.05;;;;;;;;;;5026004;28;20021;-70
2024/03/17 05:25:52;;;;;;;23.48;7.70;;;;;;;;;;5030713;28;20026;-70
2024/03/17 05:28:18;;;;;;;16.25;6.57;;;;;;;;;;5024095;28;20146;-70
2024/03/17 05:30:43;;;;;;;19.90;7.30;;;;;;;;;;5030403;28;20018;-70
2024/03/17 05:33:08;;;;;;;20.42;7.25;;;;;;;;;;5029971;28;20063;-70
2024/03/17 05:35:33;;;;;;;16.53;6.77;;;;;;;;;;5033060;28;20021;-70
2024/03/17 05:37:58;;;;;;;25.75;8.20;;;;;;;;;;5034754;28;20761;-70
2024/03/17 05:40:23;;;;;;;14.33;6.67;;;;;;;;;;5030728;28;20029;-70
2024/03/17 05:42:50;;;;;;;22.30;7.50;;;;;;;;;;5032291;28;20655;-70
2024/03/17 05:45:16;;;;;;;17.95;7.65;;;;;;;;;;5028275;28;21199;-70
2024/03/17 05:47:41;;;;;;;19.70;9.02;;;;;;;;;;5031730;28;20052;-70
2024/03/17 05:50:06;;;;;;;20.47;7.73;;;;;;;;;;5022285;28;20476;-70
2024/03/17 05:52:32;;;;;;;18.73;7.57;;;;;;;;;;5026942;28;20335;-70
2024/03/17 05:54:57;;;;;;;17.90;6.67;;;;;;;;;;5030851;28;20017;-70
2024/03/17 05:57:24;;;;;;;21.53;7.93;;;;;;;;;;5025266;28;20260;-70
2024/03/17 05:59:49;;;;;;;16.42;7.10;;;;;;;;;;5029766;28;20808;-70
2024/03/17 06:02:15;;;;;;;22.02;8.48;;;;;;;;;;5025405;28;20033;-70
2024/03/17 06:04:40;;;;;;;18.08;7.65;;;;;;;;;;5030322;28;20393;-70
2024/03/17 06:07:06;;;;;;;16.73;7.78;;;;;;;;;;5033713;28;20028;-70
2024/03/17 06:09:31;;;;;;;15.82;7.32;;;;;;;;;;5031445;28;20097;-70
2024/03/17 06:11:56;;;;;;;19.50;7.43;;;;;;;;;;5027599;28;20507;-70
2024/03/17 06:14:21;;;;;;;15.87;5.80;;;;;;;;;;5028950;28;20038;-70
2024/03/17 06:16:46;;;;;;;15.27;6.63;;;;;;;;;;5029264;28;20349;-70
2024/03/17 06:19:12;;;;;;;21.53;8.27;;;;;;;;;;5028099;28;20284;-70
2024/03/17 06:21:38;;;;;;;19.20;7.95;;;;;;;;;;5029737;28;20632;-70
2024/03/17 06:24:03;;;;;;;21.05;8.15;;;;;;;;;;5031689;28;20045;-70
2024/03/17 06:26:31;;;;;;;18.23;7.80;;;;;;;;;;5029761;28;20287;-70
2024/03/17 06:28:57;;;;;;;19.00;7.43;;;;;;;;;;5029985;28;20477;-70
2024/03/17 06:31:22;;;;;;;11.35;6.63;;;;;;;;;;5025257;28;20021;-70
2024/03/17 06:33:48;;;;;;;17.80;8.25;;;;;;;;;;5029553;28;20025;-70
2024/03/17 06:36:14;;;;;;;17.48;6.93;;;;;;;;;;5028577;28;20044;-70
2024/03/17 06:38:39;;;;;;;23.13;7.30;;;;;;;;;;5028127;28;20385;-70
2024/03/17 06:41:04;;;;;;;15.27;7.33;;;;;;;;;;5028300;28;20248;-70
2024/03/17 06:43:30;;;;;;;17.13;6.70;;;;;;;;;;5028791;28;20698;-70
2024/03/17 06:45:58;;;;;;;17.85;7.63;;;;;;;;;;5028308;28;20033;-70
2024/03/17 06:48:27;;;;;;;16.13;7.57;;;;;;;;;;5030510;28;20493;-70
2024/03/17 06:50:54;;;;;;;18.42;7.30;;;;;;;;;;5028060;28;20022;-70
2024/03/17 06:53:19;;;;;;;17.95;7.03;;;;;;;;;;5025900;28;20048;-70
2024/03/17 06:55:52;;;;;;;16.30;6.45;;;;;;;;;;5029012;28;20471;-70
2024/03/17 06:58:19;;;;;;;18.83;7.13;;;;;;;;;;5022925;28;20009;-68
2024/03/17 07:00:51;;;;;;;15.27;6.10;;;;;;;;;;5028909;28;20094;-69
2024/03/17 07:03:16;;;;;;;11.90;6.20;;;;;;;;;;5028292;28;20078;-68
2024/03/17 07:05:42;;;;;;;12.43;6.23;;;;;;;;;;5029346;28;20021;-68
2024/03/17 07:08:07;;;;;;;10.63;5.93;;;;;;;;;;5028916;28;20256;-68
2024/03/17 07:10:32;;;;;;;14.23;6.03;;;;;;;;;;5028430;28;20369;-68
2024/03/17 07:12:57;;;;;;;34.40;13.33;;;;;;;;;;5028289;28;20276;-68
2024/03/17 07:15:22;;;;;;;29.43;11.47;;;;;;;;;;5026129;28;20628;-68
2024/03/17 07:17:49;;;;;;;25.97;10.80;;;;;;;;;;5023915;28;20252;-68
2024/03/17 07:20:14;;;;;;;12.40;5.22;;;;;;;;;;5023981;28;20276;-68
2024/03/17 07:22:40;;;;;;;11.32;5.18;;;;;;;;;;5025098;28;20051;-68
2024/03/17 07:25:05;;;;;;;13.60;5.70;;;;;;;;;;5026016;28;20481;-68
2024/03/17 07:27:31;;;;;;;13.32;5.20;;;;;;;;;;5028666;28;20287;-68
2024/03/17 07:29:56;;;;;;;10.60;4.30;;;;;;;;;;5026974;28;20014;-70
2024/03/17 07:32:23;;;;;;;10.40;5.47;;;;;;;;;;5027174;28;20079;-70
2024/03/17 07:34:49;;;;;;;22.05;8.02;;;;;;;;;;5025967;28;20849;-71
2024/03/17 07:37:15;;;;;;;18.90;8.65;;;;;;;;;;5028588;28;20135;-70
2024/03/17 07:39:40;;;;;;;16.23;6.22;;;;;;;;;;5025203;28;20053;-70
2024/03/17 07:42:07;;;;;;;13.73;4.83;;;;;;;;;;5026131;28;20031;-70
2024/03/17 07:44:34;;;;;;;7.88;4.10;;;;;;;;;;5026588;28;20627;-70
2024/03/17 07:47:00;;;;;;;9.88;4.22;;;;;;;;;;5026197;28;20638;-70
2024/03/17 07:49:25;;;;;;;12.48;3.90;;;;;;;;;;5024690;28;20026;-70
2024/03/17 07:51:50;;;;;;;7.50;4.53;;;;;;;;;;5027747;28;20021;-70
2024/03/17 07:54:16;;;;;;;7.57;4.40;;;;;;;;;;5021687;28;20033;-70
2024/03/17 07:56:41;;;;;;;10.87;2.77;;;;;;;;;;5029565;28;20287;-68
2024/03/17 07:59:12;;;;;;;8.48;4.28;;;;;;;;;;5031415;28;20256;-69
2024/03/17 08:01:38;;;;;;;7.35;2.97;;;;;;;;;;5032501;28;20032;-68
2024/03/17 08:04:04;;;;;;;10.45;3.58;;;;;;;;;;5032230;28;20408;-69
2024/03/17 08:06:29;;;;;;;8.27;4.00;;;;;;;;;;5032101;28;20021;-69
2024/03/17 08:08:54;;;;;;;3.03;1.57;;;;;;;;;;5031033;28;20026;-68
2024/03/17 08:11:20;;;;;;;8.65;3.95;;;;;;;;;;5029324;28;20303;-69
2024/03/17 08:13:45;;;;;;;4.57;2.47;;;;;;;;;;5032178;28;20030;-69
2024/03/17 08:16:10;;;;;;;10.55;3.78;;;;;;;;;;5032543;28;20028;-68
2024/03/17 08:18:35;;;;;;;8.97;3.53;;;;;;;;;;5030386;28;20488;-69
2024/03/17 08:21:03;;;;;;;6.93;3.40;;;;;;;;;;5032132;28;20040;-68
2024/03/17 08:23:28;;;;;;;11.35;2.58;;;;;;;;;;5032416;28;20769;-69
2024/03/17 08:25:57;;;;;;;5.80;2.57;;;;;;;;;;5031502;28;20037;-69
2024/03/17 08:28:23;;;;;;;7.33;2.70;;;;;;;;;;5028558;28;20288;-69
2024/03/17 08:30:55;;;;;;;6.15;3.65;;;;;;;;;;5031659;28;20289;-69
2024/03/17 08:33:22;;;;;;;10.07;3.33;;;;;;;;;;5031233;28;20025;-68
2024/03/17 08:35:53;;;;;;;6.53;2.85;;;;;;;;;;5031679;28;20025;-69
2024/03/17 08:38:20;;;;;;;1.75;0.98;;;;;;;;;;5030927;28;20021;-69
2024/03/17 08:40:45;;;;;;;6.82;2.13;;;;;;;;;;5029858;28;20025;-68
2024/03/17 08:43:10;;;;;;;8.53;2.90;;;;;;;;;;5030140;28;20032;-69
2024/03/17 08:45:35;;;;;;;6.13;3.70;;;;;;;;;;5029459;28;20793;-68
2024/03/17 08:48:00;;;;;;;4.13;1.80;;;;;;;;;;5030589;28;20033;-69
2024/03/17 08:50:25;;;;;;;4.65;2.30;;;;;;;;;;5031123;28;20327;-68
2024/03/17 08:52:51;;;;;;;8.77;2.90;;;;;;;;;;5031420;28;20026;-68
2024/03/17 08:55:16;;;;;;;6.55;2.45;;;;;;;;;;5029944;28;20088;-69
2024/03/17 08:57:42;;;;;;;1.38;1.00;;;;;;;;;;5032829;28;20087;-69
2024/03/17 09:00:09;;;;;;;4.30;1.80;;;;;;;;;;5028878;28;20029;-69
2024/03/17 09:02:34;;;;;;;8.93;1.63;;;;;;;;;;5029620;28;20322;-68
2024/03/17 09:04:59;;;;;;;1.93;0.90;;;;;;;;;;5030779;28;20472;-68
2024/03/17 09:07:24;;;;;;;6.15;2.33;;;;;;;;;;5028183;28;20276;-68
2024/03/17 09:09:49;;;;;;;6.13;2.00;;;;;;;;;;5026245;28;20044;-69
2024/03/17 09:12:14;;;;;;;9.23;1.63;;;;;;;;;;5030453;28;20017;-68
2024/03/17 09:14:40;;;;;;;9.10;2.33;;;;;;;;;;5033967;28;20769;-69
2024/03/17 09:17:06;;;;;;;1.90;0.98;;;;;;;;;;5030569;28;20013;-68
2024/03/17 09:19:33;;;;;;;5.75;2.10;;;;;;;;;;5028801;28;20022;-68
2024/03/17 09:21:58;;;;;;;2.75;1.42;;;;;;;;;;5029614;28;20025;-68
2024/03/17 09:24:24;;;;;;;6.72;2.97;;;;;;;;;;5024881;28;20028;-68
2024/03/17 09:26:49;;;;;;;7.68;2.47;;;;;;;;;;5023305;28;20024;-68
2024/03/17 09:29:17;;;;;;;5.87;2.33;;;;;;;;;;5029505;28;20017;-68
2024/03/17 09:31:42;;;;;;;3.90;2.30;;;;;;;;;;5029127;28;20292;-71
2024/03/17 09:34:07;;;;;;;3.30;1.93;;;;;;;;;;5030396;28;20020;-69
2024/03/17 09:36:33;;;;;;;2.47;1.17;;;;;;;;;;5027557;28;20675;-68
2024/03/17 09:39:00;;;;;;;2.15;1.60;;;;;;;;;;5027165;28;20033;-68
2024/03/17 09:41:26;;;;;;;6.10;2.50;;;;;;;;;;5029720;28;20017;-71
2024/03/17 09:43:55;;;;;;;2.88;1.65;;;;;;;;;;5030511;28;20021;-68
2024/03/17 09:46:20;;;;;;;6.60;2.15;;;;;;;;;;5027782;28;20345;-68
2024/03/17 09:48:46;;;;;;;4.43;1.83;;;;;;;;;;5023685;28;20109;-68
2024/03/17 09:51:29;;;;;;;4.80;1.10;;;;;;;;;;5022664;28;20033;-69
2024/03/17 09:53:54;;;;;;;2.38;1.45;;;;;;;;;;5026875;28;20022;-68
2024/03/17 09:56:20;;;;;;;1.23;0.82;;;;;;;;;;5028184;28;20016;-68
2024/03/17 09:58:46;;;;;;;3.70;1.02;;;;;;;;;;5023606;28;20110;-68
2024/03/17 10:01:11;;;;;;;2.47;1.42;;;;;;;;;;5028106;28;20037;-68
2024/03/17 10:03:40;;;;;;;11.60;3.28;;;;;;;;;;5029541;28;20102;-68
2024/03/17 10:06:05;;;;;;;4.85;2.40;;;;;;;;;;5028292;28;20068;-69
2024/03/17 10:08:33;;;;;;;4.13;1.45;;;;;;;;;;5026274;28;20025;-68
2024/03/17 10:10:59;;;;;;;4.40;1.92;;;;;;;;;;5028557;28;20506;-69
2024/03/17 10:13:24;;;;;;;4.68;2.35;;;;;;;;;;5029632;28;20112;-68
2024/03/17 10:15:52;;;;;;;5.37;2.20;;;;;;;;;;5030212;28;20029;-68
2024/03/17 10:18:21;;;;;;;6.05;2.40;;;;;;;;;;5032181;28;20703;-69
2024/03/17 10:20:46;;;;;;;4.60;2.88;;;;;;;;;;5027089;28;20037;-68
2024/03/17 10:23:14;;;;;;;4.63;2.40;;;;;;;;;;5024740;28;20018;-68
2024/03/17 10:25:39;;;;;;;2.50;0.70;;;;;;;;;;5027185;28;20021;-69
2024/03/17 10:28:11;;;;;;;8.47;1.83;;;;;;;;;;5028937;28;20032;-68
2024/03/17 10:30:37;;;;;;;5.45;2.20;;;;;;;;;;5026605;28;20284;-68
2024/03/17 10:33:02;;;;;;;2.30;1.77;;;;;;;;;;5026605;28;20189;-68
2024/03/17 10:35:29;;;;;;;6.00;1.92;;;;;;;;;;5026961;28;20155;-68
2024/03/17 10:37:59;;;;;;;9.43;1.60;;;;;;;;;;5026041;28;20370;-68
2024/03/17 10:40:25;;;;;;;6.90;2.67;;;;;;;;;;5026234;28;20029;-68
2024/03/17 10:42:51;;;;;;;2.97;1.50;;;;;;;;;;5028123;28;20033;-68
2024/03/17 10:45:16;;;;;;;5.18;1.38;;;;;;;;;;5026808;28;20029;-68
2024/03/17 10:47:43;;;;;;;9.52;2.55;;;;;;;;;;5027071;28;20026;-69
2024/03/17 10:50:15;;;;;;;4.88;2.65;;;;;;;;;;5027875;28;20013;-70
2024/03/17 10:52:41;;;;;;;5.63;2.05;;;;;;;;;;5022241;28;20495;-70
2024/03/17 10:55:12;;;;;;;8.05;2.80;;;;;;;;;;5027319;28;20064;-69
2024/03/17 10:57:37;;;;;;;;;;;;;;;;;;5024622;28;20468;-70
2024/03/17 11:00:08;;;;;;;10.13;3.00;;;;;;;;;;5026089;28;20437;-70
2024/03/17 11:02:35;;;;;;;6.15;1.23;;;;;;;;;;5028263;28;20026;-70
2024/03/17 11:05:06;;;;;;;5.70;2.40;;;;;;;;;;5026347;28;20096;-69
2024/03/17 11:07:32;;;;;;;7.75;2.17;;;;;;;;;;5026299;28;20036;-70
2024/03/17 11:09:59;;;;;;;6.65;2.13;;;;;;;;;;5024642;28;20104;-69
2024/03/17 11:12:36;;;;;;;5.72;2.40;;;;;;;;;;5026733;28;20020;-70
2024/03/17 11:15:20;;;;;;;2.53;1.48;;;;;;;;;;5027091;28;20021;-70
2024/03/17 11:17:46;;;;;;;7.80;2.63;;;;;;;;;;5024571;28;20116;-69
2024/03/17 11:20:15;;;;;;;5.03;2.13;;;;;;;;;;5027035;28;20540;-69
2024/03/17 11:22:43;;;;;;;3.92;1.13;;;;;;;;;;5027187;28;20567;-70
2024/03/17 11:25:27;;;;;;;5.55;1.83;;;;;;;;;;5026793;28;20550;-71
2024/03/17 11:27:55;;;;;;;6.47;3.03;;;;;;;;;;5026314;28;20032;-70
2024/03/17 11:30:39;;;;;;;5.80;2.47;;;;;;;;;;5024467;28;20109;-70
2024/03/17 11:33:24;;;;;;;4.80;2.55;;;;;;;;;;5029282;28;20376;-70
2024/03/17 11:35:49;;;;;;;4.13;1.92;;;;;;;;;;5030549;28;20023;-70
2024/03/17 11:38:33;;;;;;;2.90;0.93;;;;;;;;;;5030205;28;20021;-70
2024/03/17 11:41:17;;;;;;;11.25;3.15;;;;;;;;;;5030270;28;20275;-70
2024/03/17 11:43:43;;;;;;;2.72;1.40;;;;;;;;;;5029442;28;20044;-69
2024/03/17 11:46:10;;;;;;;3.55;2.20;;;;;;;;;;5030507;28;20597;-69
2024/03/17 11:48:36;;;;;;;6.63;2.83;;;;;;;;;;5029408;28;20489;-70
2024/03/17 11:51:02;;;;;;;5.25;2.05;;;;;;;;;;5029131;28;20040;-70
2024/03/17 11:53:28;;;;;;;4.70;1.95;;;;;;;;;;5029503;28;20033;-70
2024/03/17 11:55:54;;;;;;;3.83;2.42;;;;;;;;;;5031467;28;20021;-70
2024/03/17 11:58:20;;;;;;;3.10;1.60;;;;;;;;;;5031967;28;20010;-69
2024/03/17 12:00:51;;;;;;;4.95;2.08;;;;;;;;;;5029245;28;20021;-70
2024/03/17 12:03:16;;;;;;;1.65;1.42;;;;;;;;;;5031788;28;20033;-70
2024/03/17 12:05:41;;;;;;;10.77;1.90;;;;;;;;;;5032517;28;20032;-71
2024/03/17 12:08:18;;;;;;;5.05;2.58;;;;;;;;;;5031483;28;20026;-70
2024/03/17 12:10:47;;;;;;;5.93;2.47;;;;;;;;;;5031254;28;20515;-70
2024/03/17 12:13:13;;;;;;;7.07;2.42;;;;;;;;;;5031520;28;20029;-69
2024/03/17 12:15:38;;;;;;;4.70;1.88;;;;;;;;;;5030173;28;20030;-70
2024/03/17 12:18:03;;;;;;;14.13;2.53;;;;;;;;;;5029408;28;20488;-70
2024/03/17 12:20:28;;;;;;;1.85;1.50;;;;;;;;;;5030646;28;20343;-70
2024/03/17 12:22:54;;;;;;;9.50;2.10;;;;;;;;;;5028859;28;20053;-70
2024/03/17 12:25:20;;;;;;;5.57;2.05;;;;;;;;;;5031416;28;20290;-70
2024/03/17 12:27:46;;;;;;;14.73;2.28;;;;;;;;;;5027860;28;20405;-69
2024/03/17 12:30:11;;;;;;;9.07;2.85;;;;;;;;;;5028570;28;20045;-69
2024/03/17 12:32:37;;;;;;;4.80;2.55;;;;;;;;;;5028716;28;20108;-69
2024/03/17 12:35:03;;;;;;;5.25;2.58;;;;;;;;;;5030934;28;20492;-70
2024/03/17 12:37:33;;;;;;;8.00;1.88;;;;;;;;;;5030304;28;20443;-69
2024/03/17 12:39:59;;;;;;;5.63;2.83;;;;;;;;;;5031233;28;20063;-69
2024/03/17 12:42:25;;;;;;;10.57;2.78;;;;;;;;;;5029332;28;20026;-70
2024/03/17 12:44:55;;;;;;;6.18;2.40;;;;;;;;;;5031051;28;20101;-70
2024/03/17 12:47:24;;;;;;;7.38;2.92;;;;;;;;;;5030776;28;20033;-71
2024/03/17 12:49:53;;;;;;;7.28;2.55;;;;;;;;;;5030051;28;20361;-70
2024/03/17 12:52:18;;;;;;;1.90;1.50;;;;;;;;;;5022182;28;20084;-70
2024/03/17 12:54:50;;;;;;;6.70;2.60;;;;;;;;;;5029047;28;20096;-70
2024/03/17 13:02:43;;;;;;;7.65;3.65;;;;;;;;;;5030133;28;20455;-71
2024/03/17 13:05:20;;;;;;;6.88;2.63;;;;;;;;;;5030796;28;20021;-69
2024/03/17 13:07:46;;;;;;;9.15;3.17;;;;;;;;;;5029474;28;20254;-70
2024/03/17 13:10:13;;;;;;;8.30;3.00;;;;;;;;;;5028539;28;20045;-70
2024/03/17 13:12:38;;;;;;;6.05;1.80;;;;;;;;;;5030076;28;20022;-70
2024/03/17 13:15:04;;;;;;;5.43;2.63;;;;;;;;;;5030152;28;20017;-69
2024/03/17 13:17:33;;;;;;;7.38;2.70;;;;;;;;;;5028355;28;20283;-70
2024/03/17 13:19:59;;;;;;;7.90;2.28;;;;;;;;;;5030001;28;20353;-70
2024/03/17 13:22:24;;;;;;;1.20;0.57;;;;;;;;;;5030561;28;20040;-70
2024/03/17 13:24:49;;;;;;;6.65;2.63;;;;;;;;;;5029484;28;20459;-69
2024/03/17 13:27:14;;;;;;;6.57;2.83;;;;;;;;;;5028598;28;20473;-70
2024/03/17 13:29:43;;;;;;;6.25;2.70;;;;;;;;;;5028571;28;20021;-69
2024/03/17 13:32:09;;;;;;;1.48;1.08;;;;;;;;;;5028784;28;20026;-69
2024/03/17 13:34:34;;;;;;;7.18;2.33;;;;;;;;;;5030339;28;20538;-70
2024/03/17 13:37:00;;;;;;;7.43;2.35;;;;;;;;;;5028928;28;20017;-70
2024/03/17 13:39:32;;;;;;;6.18;2.17;;;;;;;;;;5028257;28;20020;-70
2024/03/17 13:42:02;;;;;;;5.40;2.78;;;;;;;;;;5027778;28;20071;-70
2024/03/17 13:44:28;;;;;;;4.82;2.67;;;;;;;;;;5026250;28;20021;-70
2024/03/17 13:46:53;;;;;;;7.43;1.92;;;;;;;;;;5029237;28;20036;-70
2024/03/17 13:49:18;;;;;;;2.30;1.27;;;;;;;;;;5029886;28;20026;-69
2024/03/17 13:51:43;;;;;;;8.82;2.55;;;;;;;;;;5028181;28;20287;-70
2024/03/17 13:54:08;;;;;;;8.17;2.80;;;;;;;;;;5028147;28;20028;-69
2024/03/17 13:56:34;;;;;;;7.28;3.28;;;;;;;;;;5029006;28;20775;-69
2024/03/17 13:58:59;;;;;;;6.95;3.08;;;;;;;;;;5029449;28;20480;-69
2024/03/17 14:01:25;;;;;;;5.88;2.60;;;;;;;;;;5028009;28;20041;-69
2024/03/17 14:03:50;;;;;;;4.28;2.15;;;;;;;;;;5029669;28;20051;-69
2024/03/17 14:06:15;;;;;;;8.77;3.20;;;;;;;;;;5029187;28;20079;-70
2024/03/17 14:08:40;;;;;;;5.23;2.37;;;;;;;;;;5028920;28;20826;-69
2024/03/17 14:11:05;;;;;;;4.03;1.53;;;;;;;;;;5029198;28;20013;-69
2024/03/17 14:13:31;;;;;;;8.47;2.37;;;;;;;;;;5030026;28;20698;-69
2024/03/17 14:15:56;;;;;;;5.13;2.10;;;;;;;;;;5028428;28;20272;-69
2024/03/17 14:18:21;;;;;;;4.63;2.25;;;;;;;;;;5030606;28;20283;-69
2024/03/17 14:20:46;;;;;;;11.23;2.58;;;;;;;;;;5029139;28;20369;-69
2024/03/17 14:23:12;;;;;;;6.13;1.70;;;;;;;;;;5029621;28;20121;-69
2024/03/17 14:25:37;;;;;;;3.70;2.05;;;;;;;;;;5029403;28;20088;-69
2024/03/17 14:28:03;;;;;;;3.20;1.67;;;;;;;;;;5033242;28;20055;-69
2024/03/17 14:30:29;;;;;;;4.15;2.05;;;;;;;;;;5030819;28;20427;-70
2024/03/17 14:32:54;;;;;;;5.38;1.75;;;;;;;;;;5027479;28;20021;-69
2024/03/17 14:35:22;;;;;;;5.43;2.03;;;;;;;;;;5029140;28;20484;-69
2024/03/17 14:37:47;;;;;;;6.97;2.35;;;;;;;;;;5028362;28;20261;-70